createdAt,value
2023-02-08T00:01:41.023Z,95957.00
2023-02-08T00:05:44.522Z,95945.00
2023-02-08T00:09:51.538Z,95921.00
2023-02-08T00:13:55.002Z,95954.00
2023-02-08T00:17:59.999Z,95945.00
2023-02-08T00:22:06.710Z,95964.00
2023-02-08T00:26:10.882Z,95942.00
2023-02-08T00:30:16.029Z,95970.00
2023-02-08T00:34:20.962Z,95973.00
2023-02-08T00:38:50.916Z,95974.00
2023-02-08T00:42:54.797Z,95977.00
2023-02-08T00:46:58.299Z,95963.00
2023-02-08T00:51:05.903Z,95922.00
2023-02-08T00:55:10.389Z,95952.00
2023-02-08T00:59:13.826Z,95948.00
2023-02-08T01:03:39.000Z,95948.00
2023-02-08T01:07:43.814Z,95954.00
2023-02-08T01:11:47.449Z,95944.00
2023-02-08T01:16:41.822Z,95953.00
2023-02-08T01:20:45.323Z,95955.00
2023-02-08T01:24:56.109Z,95953.00
2023-02-08T01:28:59.744Z,95952.00
2023-02-08T01:33:56.800Z,95960.00
2023-02-08T01:38:25.157Z,95964.00
2023-02-08T01:42:30.041Z,95915.00
2023-02-08T01:46:35.020Z,95936.00
2023-02-08T01:50:46.572Z,95940.00
2023-02-08T01:54:56.398Z,95971.00
2023-02-08T01:59:16.785Z,95963.00
2023-02-08T02:03:22.173Z,95923.00
2023-02-08T02:07:29.588Z,95923.00
2023-02-08T02:11:42.940Z,95961.00
2023-02-08T02:15:48.048Z,95939.00
2023-02-08T02:20:31.612Z,95948.00
2023-02-08T02:24:55.028Z,95939.00
2023-02-08T02:29:41.367Z,95930.00
2023-02-08T02:34:03.904Z,95941.00
2023-02-08T02:38:16.032Z,95935.00
2023-02-08T02:48:11.886Z,95923.00
2023-02-08T02:52:35.785Z,95924.00
2023-02-08T02:56:43.936Z,95939.00
2023-02-08T03:01:09.056Z,95947.00
2023-02-08T03:05:13.713Z,95933.00
2023-02-08T03:09:42.144Z,95947.00
2023-02-08T03:14:24.752Z,95939.00
2023-02-08T03:18:43.074Z,95920.00
2023-02-08T03:22:59.785Z,95938.00
2023-02-08T03:27:09.590Z,95913.00
2023-02-08T03:31:17.697Z,95946.00
2023-02-08T03:35:25.915Z,95941.00
2023-02-08T03:39:33.068Z,95927.00
2023-02-08T03:43:41.837Z,95923.00
2023-02-08T03:47:58.300Z,95932.00
2023-02-08T03:52:04.927Z,95912.00
2023-02-08T03:56:19.389Z,95910.00
2023-02-08T04:00:25.412Z,95938.00
2023-02-08T04:04:41.987Z,95927.00
2023-02-08T04:08:45.577Z,95932.00
2023-02-08T04:12:50.348Z,95887.00
2023-02-08T04:16:58.782Z,95890.00
2023-02-08T04:21:02.365Z,95918.00
2023-02-08T04:25:06.110Z,95922.00
2023-02-08T04:29:11.824Z,95919.00
2023-02-08T04:33:17.153Z,95927.00
2023-02-08T04:37:20.776Z,95900.00
2023-02-08T04:41:24.348Z,95905.00
2023-02-08T04:45:30.064Z,95907.00
2023-02-08T04:50:00.169Z,95934.00
2023-02-08T04:54:42.472Z,95926.00
2023-02-08T04:58:45.892Z,95931.00
2023-02-08T05:02:54.498Z,95926.00
2023-02-08T05:06:59.383Z,95915.00
2023-02-08T05:11:02.907Z,95910.00
2023-02-08T05:15:31.860Z,95930.00
2023-02-08T05:19:42.651Z,95941.00
2023-02-08T05:23:47.505Z,95934.00
2023-02-08T05:27:51.170Z,95904.00
2023-02-08T05:31:59.341Z,95952.00
2023-02-08T05:36:05.064Z,95932.00
2023-02-08T05:40:13.312Z,95910.00
2023-02-08T05:44:16.866Z,95944.00
2023-02-08T05:48:25.743Z,95942.00
2023-02-08T05:52:29.257Z,95939.00
2023-02-08T05:56:34.438Z,95961.00
2023-02-08T06:00:40.685Z,95928.00
2023-02-08T06:04:44.358Z,95937.00
2023-02-08T06:08:48.243Z,95963.00
2023-02-08T06:13:09.318Z,95966.00
2023-02-08T06:17:12.840Z,95959.00
2023-02-08T06:21:16.301Z,95960.00
2023-02-08T06:25:20.989Z,95962.00
2023-02-08T06:29:25.937Z,95956.00
2023-02-08T06:33:29.525Z,95986.00
2023-02-08T06:37:58.873Z,95980.00
2023-02-08T06:42:03.493Z,95965.00
2023-02-08T06:46:08.959Z,95979.00
2023-02-08T06:50:12.934Z,95979.00
2023-02-08T06:54:41.826Z,95993.00
2023-02-08T06:58:51.405Z,95987.00
2023-02-08T07:02:56.291Z,95987.00
2023-02-08T07:06:59.869Z,96019.00
2023-02-08T07:11:28.992Z,96010.00
2023-02-08T07:15:42.975Z,95992.00
2023-02-08T07:19:47.976Z,95996.00
2023-02-08T07:23:51.641Z,96014.00
2023-02-08T07:27:57.244Z,96009.00
2023-02-08T07:32:02.551Z,95977.00
2023-02-08T07:36:09.115Z,96012.00
2023-02-08T07:40:13.254Z,96024.00
2023-02-08T07:44:16.700Z,96003.00
2023-02-08T07:48:28.632Z,96005.00
2023-02-08T07:52:34.146Z,96030.00
2023-02-08T07:56:37.796Z,96022.00
2023-02-08T08:06:22.754Z,96020.00
2023-02-08T08:10:27.703Z,96027.00
2023-02-08T08:14:31.277Z,96030.00
2023-02-08T08:18:34.828Z,95998.00
2023-02-08T08:22:43.447Z,95999.00
2023-02-08T08:26:48.377Z,96009.00
2023-02-08T08:30:52.079Z,96015.00
2023-02-08T08:35:47.615Z,96054.00
2023-02-08T08:39:51.492Z,96056.00
2023-02-08T08:43:56.419Z,96047.00
2023-02-08T08:48:00.770Z,96056.00
2023-02-08T08:52:07.969Z,96044.00
2023-02-08T08:56:11.591Z,96013.00
2023-02-08T09:00:17.052Z,96027.00
2023-02-08T09:04:22.860Z,96030.00
2023-02-08T09:08:26.434Z,96016.00
2023-02-08T09:12:30.152Z,96034.00
2023-02-08T09:16:36.252Z,96041.00
2023-02-08T09:20:40.144Z,96030.00
2023-02-08T09:24:43.653Z,96042.00
2023-02-08T09:28:53.603Z,96048.00
2023-02-08T09:32:58.480Z,96057.00
2023-02-08T09:37:01.966Z,96041.00
2023-02-08T09:41:31.235Z,96049.00
2023-02-08T09:45:59.231Z,96034.00
2023-02-08T09:50:14.255Z,96036.00
2023-02-08T09:54:22.446Z,96049.00
2023-02-08T10:03:35.151Z,96068.00
2023-02-08T10:07:42.741Z,96068.00
2023-02-08T10:12:00.013Z,96065.00
2023-02-08T10:16:16.040Z,96068.00
2023-02-08T10:20:41.228Z,96066.00
2023-02-08T10:25:09.087Z,96059.00
2023-02-08T10:30:01.280Z,96059.00
2023-02-08T10:34:09.470Z,96066.00
2023-02-08T10:38:46.429Z,96051.00
2023-02-08T10:42:57.455Z,96034.00
2023-02-08T10:47:24.772Z,96041.00
2023-02-08T10:51:30.060Z,96031.00
2023-02-08T10:55:37.672Z,96037.00
2023-02-08T10:59:59.616Z,96048.00
2023-02-08T11:04:04.799Z,96043.00
2023-02-08T11:08:10.915Z,96026.00
2023-02-08T11:12:41.562Z,96057.00
2023-02-08T11:17:08.067Z,96050.00
2023-02-08T11:21:25.154Z,96038.00
2023-02-08T11:25:39.136Z,96053.00
2023-02-08T11:30:34.394Z,96038.00
2023-02-08T11:35:15.546Z,96031.00
2023-02-08T11:39:25.579Z,96039.00
2023-02-08T11:43:31.717Z,96037.00
2023-02-08T11:47:38.536Z,96020.00
2023-02-08T11:51:47.396Z,96021.00
2023-02-08T11:56:05.509Z,96033.00
2023-02-08T12:00:20.399Z,96014.00
2023-02-08T12:04:25.706Z,96006.00
2023-02-08T12:08:50.987Z,96018.00
2023-02-08T12:13:26.803Z,95985.00
2023-02-08T12:18:00.625Z,95993.00
2023-02-08T12:22:10.757Z,96026.00
2023-02-08T12:26:50.872Z,95990.00
2023-02-08T12:31:16.610Z,95994.00
2023-02-08T12:36:01.414Z,96005.00
2023-02-08T12:40:46.346Z,95982.00
2023-02-08T12:45:24.138Z,95992.00
2023-02-08T12:50:17.175Z,95994.00
2023-02-08T12:54:35.141Z,95981.00
2023-02-08T12:59:13.525Z,95981.00
2023-02-08T13:04:03.759Z,95976.00
2023-02-08T13:08:25.869Z,95974.00
2023-02-08T13:12:32.829Z,95964.00
2023-02-08T13:16:42.472Z,95972.00
2023-02-08T13:20:52.477Z,95947.00
2023-02-08T13:25:11.649Z,95946.00
2023-02-08T13:29:27.177Z,95963.00
2023-02-08T13:34:01.178Z,95934.00
2023-02-08T13:38:30.008Z,95975.00
2023-02-08T13:42:43.651Z,95965.00
2023-02-08T13:46:49.896Z,95963.00
2023-02-08T13:50:54.870Z,95954.00
2023-02-08T13:55:36.225Z,95954.00
2023-02-08T13:59:42.404Z,95943.00
2023-02-08T14:04:33.688Z,95952.00
2023-02-08T14:09:07.633Z,95952.00
2023-02-08T14:13:25.381Z,95931.00
2023-02-08T14:17:31.415Z,95955.00
2023-02-08T14:22:07.099Z,95942.00
2023-02-08T14:26:25.508Z,95932.00
2023-02-08T14:30:31.817Z,95947.00
2023-02-08T14:34:41.380Z,95945.00
2023-02-08T14:39:08.847Z,95927.00
2023-02-08T14:43:34.584Z,95942.00
2023-02-08T14:48:16.036Z,95954.00
2023-02-08T14:52:24.921Z,95936.00
2023-02-08T14:56:32.358Z,95944.00
2023-02-08T15:00:39.363Z,95936.00
2023-02-08T15:04:51.319Z,95934.00
2023-02-08T15:08:57.182Z,95924.00
2023-02-08T15:13:03.997Z,95952.00
2023-02-08T15:17:22.627Z,95924.00
2023-02-08T15:21:36.759Z,95936.00
2023-02-08T15:25:42.161Z,95946.00
2023-02-08T15:29:46.225Z,95943.00
2023-02-08T15:33:51.437Z,95960.00
2023-02-08T15:37:56.346Z,95938.00
2023-02-08T15:42:02.863Z,95957.00
2023-02-08T15:46:08.966Z,95939.00
2023-02-08T15:50:21.301Z,95949.00
2023-02-08T15:54:25.576Z,95939.00
2023-02-08T15:58:32.957Z,95960.00
2023-02-08T16:02:40.835Z,95948.00
2023-02-08T16:06:49.280Z,95954.00
2023-02-08T16:11:01.321Z,95958.00
2023-02-08T16:15:06.953Z,95938.00
2023-02-08T16:19:28.680Z,95945.00
2023-02-08T16:23:34.007Z,95912.00
2023-02-08T16:27:37.609Z,95938.00
2023-02-08T16:31:45.748Z,95941.00
2023-02-08T16:35:49.626Z,95921.00
2023-02-08T16:40:36.599Z,95939.00
2023-02-08T16:44:40.122Z,95945.00
2023-02-08T16:48:46.227Z,95906.00
2023-02-08T16:53:01.043Z,95935.00
2023-02-08T16:57:04.662Z,95942.00
2023-02-08T17:01:11.252Z,95918.00
2023-02-08T17:05:41.607Z,95958.00
2023-02-08T17:09:47.257Z,95958.00
2023-02-08T17:13:52.367Z,95973.00
2023-02-08T17:17:57.240Z,95928.00
2023-02-08T17:22:04.522Z,95965.00
2023-02-08T17:30:37.616Z,95955.00
2023-02-08T17:34:41.152Z,95938.00
2023-02-08T17:38:47.545Z,95954.00
2023-02-08T17:42:53.148Z,95946.00
2023-02-08T17:46:56.745Z,95967.00
2023-02-08T17:51:00.595Z,95930.00
2023-02-08T17:55:06.420Z,95938.00
2023-02-08T17:59:09.896Z,95951.00
2023-02-08T18:03:17.395Z,95932.00
2023-02-08T18:07:21.677Z,95946.00
2023-02-08T18:11:26.734Z,95955.00
2023-02-08T18:15:57.116Z,95938.00
2023-02-08T18:20:01.083Z,95941.00
2023-02-08T18:24:05.615Z,95935.00
2023-02-08T18:28:14.754Z,95916.00
2023-02-08T18:32:20.616Z,95923.00
2023-02-08T18:36:25.379Z,95923.00
2023-02-08T18:40:30.410Z,95903.00
2023-02-08T18:50:10.795Z,95916.00
2023-02-08T18:54:15.348Z,95916.00
2023-02-08T18:59:35.161Z,95911.00
2023-02-08T19:03:39.798Z,95908.00
2023-02-08T19:07:44.830Z,95906.00
2023-02-08T19:11:48.649Z,95905.00
2023-02-08T19:15:52.214Z,95918.00
2023-02-08T19:19:55.846Z,95913.00
2023-02-08T19:24:25.838Z,95897.00
2023-02-08T19:28:29.516Z,95895.00
2023-02-08T19:32:33.117Z,95902.00
2023-02-08T19:36:51.942Z,95895.00
2023-02-08T19:40:57.146Z,95887.00
2023-02-08T19:45:05.402Z,95891.00
2023-02-08T19:49:09.430Z,95889.00
2023-02-08T19:53:12.939Z,95881.00
2023-02-08T19:57:23.525Z,95895.00
2023-02-08T20:01:27.109Z,95894.00
2023-02-08T20:05:30.632Z,95887.00
2023-02-08T20:09:34.805Z,95868.00
2023-02-08T20:13:40.004Z,95858.00
2023-02-08T20:17:44.825Z,95888.00
2023-02-08T20:21:48.405Z,95890.00
2023-02-08T20:25:51.894Z,95900.00
2023-02-08T20:29:58.245Z,95897.00
2023-02-08T20:34:26.390Z,95900.00
2023-02-08T20:38:34.327Z,95882.00
2023-02-08T20:42:39.494Z,95910.00
2023-02-08T20:46:45.139Z,95901.00
2023-02-08T20:50:48.698Z,95907.00
2023-02-08T20:54:53.252Z,95907.00
2023-02-08T20:58:56.872Z,95923.00
2023-02-08T21:03:01.922Z,95912.00
2023-02-08T21:07:11.733Z,95896.00
2023-02-08T21:11:15.188Z,95930.00
2023-02-08T21:15:18.898Z,95907.00
2023-02-08T21:20:30.499Z,95908.00
2023-02-08T21:24:35.718Z,95892.00
2023-02-08T21:28:39.427Z,95904.00
2023-02-08T21:32:54.259Z,95883.00
2023-02-08T21:36:57.875Z,95894.00
2023-02-08T21:41:33.318Z,95892.00
2023-02-08T21:45:36.952Z,95876.00
2023-02-08T21:54:49.010Z,95877.00
2023-02-08T21:58:54.100Z,95889.00
2023-02-08T22:02:57.672Z,95889.00
2023-02-08T22:07:12.633Z,95880.00
2023-02-08T22:11:16.472Z,95887.00
2023-02-08T22:15:23.765Z,95869.00
2023-02-08T22:19:30.982Z,95845.00
2023-02-08T22:23:34.440Z,95857.00
2023-02-08T22:27:38.655Z,95868.00
2023-02-08T22:32:10.177Z,95864.00
2023-02-08T22:36:17.501Z,95850.00
2023-02-08T22:40:26.055Z,95866.00
2023-02-08T22:44:29.660Z,95848.00
2023-02-08T22:48:33.997Z,95840.00
2023-02-08T22:52:44.632Z,95861.00
2023-02-08T22:56:48.212Z,95858.00
2023-02-08T23:00:51.890Z,95811.00
2023-02-08T23:04:56.794Z,95837.00
2023-02-08T23:09:01.747Z,95829.00
2023-02-08T23:13:05.676Z,95839.00
2023-02-08T23:17:12.889Z,95816.00
2023-02-08T23:21:18.282Z,95818.00
2023-02-08T23:25:24.056Z,95832.00
2023-02-08T23:29:42.018Z,95822.00
2023-02-08T23:33:45.563Z,95817.00
2023-02-08T23:37:49.050Z,95788.00
2023-02-08T23:41:56.732Z,95819.00
2023-02-08T23:46:00.296Z,95809.00
2023-02-08T23:50:03.956Z,95789.00
2023-02-08T23:54:07.803Z,95792.00
2023-02-08T23:58:12.644Z,95771.00
